Des Peres, Missouri
Current Conditions -  °F | °C
As of 2:51 PM on Friday 21 Nov 2014 (Local Time) from KSTL Reporting Station
Broken Clouds Broken Clouds  
Wind Chill:   Ceiling: 4000
Heat Index:   Visibility: 10mi
Dew Point: -7°   Wind: 13mph
Humidity: 41%   Direction: 120°ESE
Pressure: 30.3"   Gusts: NA
Location:  38.5796°N, 90.4197°W
Report Text: KSTL 212051Z 12011KT 10SM BKN040 BKN250 06/M07 A3030 RMK AO2 SLP272 T00561067 56024
Loading
Personal Weather Stations






























Interactive Weather Map New forecast layout! Learn more

10-Day Weather Forecast

Advertisements
Track Severe Weather on mobile